sensor_id;sensor_type;location;lat;lon;timestamp;P1;durP1;ratioP1;P2;durP2;ratioP2
11651;SDS011;5882;48.818;9.114;2023-08-06T00:02:24;2.10;;;2.00;;
11651;SDS011;5882;48.818;9.114;2023-08-06T00:05:13;1.90;;;1.80;;
11651;SDS011;5882;48.818;9.114;2023-08-06T00:08:01;2.22;;;1.98;;
11651;SDS011;5882;48.818;9.114;2023-08-06T00:10:47;1.85;;;1.70;;
11651;SDS011;5882;48.818;9.114;2023-08-06T00:13:32;1.70;;;1.60;;
11651;SDS011;5882;48.818;9.114;2023-08-06T00:16:17;1.67;;;1.58;;
11651;SDS011;5882;48.818;9.114;2023-08-06T00:19:02;1.60;;;1.50;;
11651;SDS011;5882;48.818;9.114;2023-08-06T00:21:48;1.55;;;1.45;;
11651;SDS011;5882;48.818;9.114;2023-08-06T00:24:34;1.98;;;1.63;;
11651;SDS011;5882;48.818;9.114;2023-08-06T00:27:19;2.08;;;1.70;;
11651;SDS011;5882;48.818;9.114;2023-08-06T00:30:04;2.85;;;1.50;;
11651;SDS011;5882;48.818;9.114;2023-08-06T00:32:49;1.60;;;1.50;;
11651;SDS011;5882;48.818;9.114;2023-08-06T00:35:35;1.70;;;1.60;;
11651;SDS011;5882;48.818;9.114;2023-08-06T00:38:21;1.55;;;1.45;;
11651;SDS011;5882;48.818;9.114;2023-08-06T00:41:08;1.40;;;1.30;;
11651;SDS011;5882;48.818;9.114;2023-08-06T00:43:53;1.60;;;1.50;;
11651;SDS011;5882;48.818;9.114;2023-08-06T00:46:39;1.80;;;1.70;;
11651;SDS011;5882;48.818;9.114;2023-08-06T00:49:24;1.80;;;1.70;;
11651;SDS011;5882;48.818;9.114;2023-08-06T00:52:09;1.60;;;1.50;;
11651;SDS011;5882;48.818;9.114;2023-08-06T00:54:55;1.58;;;1.48;;
11651;SDS011;5882;48.818;9.114;2023-08-06T00:57:40;1.80;;;1.70;;
11651;SDS011;5882;48.818;9.114;2023-08-06T01:00:26;1.50;;;1.40;;
11651;SDS011;5882;48.818;9.114;2023-08-06T01:03:11;1.75;;;1.65;;
11651;SDS011;5882;48.818;9.114;2023-08-06T01:05:56;1.67;;;1.58;;
11651;SDS011;5882;48.818;9.114;2023-08-06T01:08:43;1.80;;;1.63;;
11651;SDS011;5882;48.818;9.114;2023-08-06T01:11:38;1.42;;;1.33;;
11651;SDS011;5882;48.818;9.114;2023-08-06T01:14:27;1.60;;;1.50;;
11651;SDS011;5882;48.818;9.114;2023-08-06T01:17:12;1.65;;;1.55;;
11651;SDS011;5882;48.818;9.114;2023-08-06T01:20:00;1.77;;;1.60;;
11651;SDS011;5882;48.818;9.114;2023-08-06T01:22:49;1.80;;;1.70;;
11651;SDS011;5882;48.818;9.114;2023-08-06T01:25:34;1.70;;;1.60;;
11651;SDS011;5882;48.818;9.114;2023-08-06T01:28:23;1.77;;;1.67;;
11651;SDS011;5882;48.818;9.114;2023-08-06T01:31:14;1.77;;;1.67;;
11651;SDS011;5882;48.818;9.114;2023-08-06T01:34:00;1.50;;;1.40;;
11651;SDS011;5882;48.818;9.114;2023-08-06T01:36:45;1.52;;;1.42;;
11651;SDS011;5882;48.818;9.114;2023-08-06T01:39:34;1.63;;;1.52;;
11651;SDS011;5882;48.818;9.114;2023-08-06T01:42:19;1.27;;;1.17;;
11651;SDS011;5882;48.818;9.114;2023-08-06T01:45:04;1.95;;;1.77;;
11651;SDS011;5882;48.818;9.114;2023-08-06T01:47:51;2.15;;;1.90;;
11651;SDS011;5882;48.818;9.114;2023-08-06T01:50:36;1.90;;;1.35;;
11651;SDS011;5882;48.818;9.114;2023-08-06T01:53:21;1.77;;;1.67;;
11651;SDS011;5882;48.818;9.114;2023-08-06T01:56:09;1.63;;;1.52;;
11651;SDS011;5882;48.818;9.114;2023-08-06T01:58:54;2.28;;;1.65;;
11651;SDS011;5882;48.818;9.114;2023-08-06T02:01:39;1.75;;;1.40;;
11651;SDS011;5882;48.818;9.114;2023-08-06T02:04:24;1.70;;;1.35;;
11651;SDS011;5882;48.818;9.114;2023-08-06T02:07:09;1.58;;;1.48;;
11651;SDS011;5882;48.818;9.114;2023-08-06T02:09:54;1.52;;;1.42;;
11651;SDS011;5882;48.818;9.114;2023-08-06T02:12:40;1.40;;;1.30;;
11651;SDS011;5882;48.818;9.114;2023-08-06T02:15:25;1.40;;;1.30;;
11651;SDS011;5882;48.818;9.114;2023-08-06T02:18:11;1.60;;;1.50;;
11651;SDS011;5882;48.818;9.114;2023-08-06T02:20:56;1.55;;;1.45;;
11651;SDS011;5882;48.818;9.114;2023-08-06T02:23:42;1.50;;;1.40;;
11651;SDS011;5882;48.818;9.114;2023-08-06T02:26:27;1.30;;;1.20;;
11651;SDS011;5882;48.818;9.114;2023-08-06T02:29:13;3.10;;;1.48;;
11651;SDS011;5882;48.818;9.114;2023-08-06T02:31:58;1.48;;;1.38;;
11651;SDS011;5882;48.818;9.114;2023-08-06T02:34:45;1.48;;;1.38;;
11651;SDS011;5882;48.818;9.114;2023-08-06T02:37:30;1.85;;;1.60;;
11651;SDS011;5882;48.818;9.114;2023-08-06T02:40:16;1.40;;;1.30;;
11651;SDS011;5882;48.818;9.114;2023-08-06T02:43:01;1.40;;;1.30;;
11651;SDS011;5882;48.818;9.114;2023-08-06T02:45:48;1.17;;;1.10;;
11651;SDS011;5882;48.818;9.114;2023-08-06T02:48:42;1.42;;;1.33;;
11651;SDS011;5882;48.818;9.114;2023-08-06T02:51:27;1.60;;;1.50;;
11651;SDS011;5882;48.818;9.114;2023-08-06T02:54:12;1.38;;;1.27;;
11651;SDS011;5882;48.818;9.114;2023-08-06T02:56:58;1.70;;;1.48;;
11651;SDS011;5882;48.818;9.114;2023-08-06T02:59:44;1.50;;;1.40;;
11651;SDS011;5882;48.818;9.114;2023-08-06T03:02:33;1.90;;;1.80;;
11651;SDS011;5882;48.818;9.114;2023-08-06T03:05:18;1.20;;;1.13;;
11651;SDS011;5882;48.818;9.114;2023-08-06T03:08:03;1.38;;;1.27;;
11651;SDS011;5882;48.818;9.114;2023-08-06T03:10:48;1.30;;;1.20;;
11651;SDS011;5882;48.818;9.114;2023-08-06T03:13:33;1.45;;;1.35;;
11651;SDS011;5882;48.818;9.114;2023-08-06T03:16:18;1.45;;;1.35;;
11651;SDS011;5882;48.818;9.114;2023-08-06T03:19:05;1.40;;;1.30;;
11651;SDS011;5882;48.818;9.114;2023-08-06T03:21:50;1.40;;;1.30;;
11651;SDS011;5882;48.818;9.114;2023-08-06T03:24:35;1.60;;;1.50;;
11651;SDS011;5882;48.818;9.114;2023-08-06T03:27:20;1.50;;;1.40;;
11651;SDS011;5882;48.818;9.114;2023-08-06T03:30:06;1.38;;;1.27;;
11651;SDS011;5882;48.818;9.114;2023-08-06T03:32:54;1.40;;;1.30;;
11651;SDS011;5882;48.818;9.114;2023-08-06T03:35:41;1.13;;;1.13;;
11651;SDS011;5882;48.818;9.114;2023-08-06T03:38:26;1.50;;;1.40;;
11651;SDS011;5882;48.818;9.114;2023-08-06T03:41:12;1.38;;;1.27;;
11651;SDS011;5882;48.818;9.114;2023-08-06T03:43:57;1.38;;;1.27;;
11651;SDS011;5882;48.818;9.114;2023-08-06T03:46:47;1.50;;;1.40;;
11651;SDS011;5882;48.818;9.114;2023-08-06T03:49:32;1.40;;;1.30;;
11651;SDS011;5882;48.818;9.114;2023-08-06T03:52:19;1.40;;;1.30;;
11651;SDS011;5882;48.818;9.114;2023-08-06T03:55:04;1.00;;;1.00;;
11651;SDS011;5882;48.818;9.114;2023-08-06T03:57:49;1.25;;;1.15;;
11651;SDS011;5882;48.818;9.114;2023-08-06T04:00:35;1.27;;;1.17;;
11651;SDS011;5882;48.818;9.114;2023-08-06T04:03:20;1.83;;;1.30;;
11651;SDS011;5882;48.818;9.114;2023-08-06T04:06:05;1.50;;;1.40;;
11651;SDS011;5882;48.818;9.114;2023-08-06T04:08:52;1.55;;;1.20;;
11651;SDS011;5882;48.818;9.114;2023-08-06T04:11:37;1.23;;;1.13;;
11651;SDS011;5882;48.818;9.114;2023-08-06T04:14:22;1.33;;;1.23;;
11651;SDS011;5882;48.818;9.114;2023-08-06T04:17:07;1.48;;;1.35;;
11651;SDS011;5882;48.818;9.114;2023-08-06T04:19:52;1.42;;;1.33;;
11651;SDS011;5882;48.818;9.114;2023-08-06T04:22:38;1.40;;;1.27;;
11651;SDS011;5882;48.818;9.114;2023-08-06T04:25:24;1.80;;;1.30;;
11651;SDS011;5882;48.818;9.114;2023-08-06T04:28:11;1.08;;;1.05;;
11651;SDS011;5882;48.818;9.114;2023-08-06T04:30:56;1.30;;;1.20;;
11651;SDS011;5882;48.818;9.114;2023-08-06T04:33:41;1.42;;;1.33;;
11651;SDS011;5882;48.818;9.114;2023-08-06T04:36:25;1.33;;;1.15;;
11651;SDS011;5882;48.818;9.114;2023-08-06T04:39:11;1.50;;;1.27;;
11651;SDS011;5882;48.818;9.114;2023-08-06T04:41:58;1.20;;;1.10;;
11651;SDS011;5882;48.818;9.114;2023-08-06T04:44:46;1.70;;;1.30;;
11651;SDS011;5882;48.818;9.114;2023-08-06T04:47:31;1.58;;;1.48;;
11651;SDS011;5882;48.818;9.114;2023-08-06T04:50:16;1.33;;;1.30;;
11651;SDS011;5882;48.818;9.114;2023-08-06T04:53:02;1.30;;;1.15;;
11651;SDS011;5882;48.818;9.114;2023-08-06T04:55:47;1.40;;;1.30;;
11651;SDS011;5882;48.818;9.114;2023-08-06T04:58:33;1.65;;;1.20;;
11651;SDS011;5882;48.818;9.114;2023-08-06T05:01:18;2.15;;;1.42;;
11651;SDS011;5882;48.818;9.114;2023-08-06T05:04:03;2.15;;;1.33;;
11651;SDS011;5882;48.818;9.114;2023-08-06T05:06:48;1.27;;;1.17;;
11651;SDS011;5882;48.818;9.114;2023-08-06T05:09:34;1.58;;;1.30;;
11651;SDS011;5882;48.818;9.114;2023-08-06T05:12:19;1.85;;;1.50;;
11651;SDS011;5882;48.818;9.114;2023-08-06T05:15:05;1.25;;;1.15;;
11651;SDS011;5882;48.818;9.114;2023-08-06T05:17:51;1.30;;;1.20;;
11651;SDS011;5882;48.818;9.114;2023-08-06T05:20:36;1.02;;;1.02;;
11651;SDS011;5882;48.818;9.114;2023-08-06T05:23:22;1.23;;;1.15;;
11651;SDS011;5882;48.818;9.114;2023-08-06T05:26:07;1.00;;;1.00;;
11651;SDS011;5882;48.818;9.114;2023-08-06T05:28:51;1.20;;;1.10;;
11651;SDS011;5882;48.818;9.114;2023-08-06T05:31:38;1.27;;;1.17;;
11651;SDS011;5882;48.818;9.114;2023-08-06T05:34:23;0.90;;;0.90;;
11651;SDS011;5882;48.818;9.114;2023-08-06T05:37:08;1.02;;;1.02;;
11651;SDS011;5882;48.818;9.114;2023-08-06T05:39:55;0.90;;;0.90;;
11651;SDS011;5882;48.818;9.114;2023-08-06T05:42:40;1.00;;;0.90;;
11651;SDS011;5882;48.818;9.114;2023-08-06T05:45:25;0.80;;;0.80;;
11651;SDS011;5882;48.818;9.114;2023-08-06T05:48:12;1.10;;;1.00;;
11651;SDS011;5882;48.818;9.114;2023-08-06T05:50:59;0.80;;;0.80;;
11651;SDS011;5882;48.818;9.114;2023-08-06T05:53:44;0.98;;;0.80;;
11651;SDS011;5882;48.818;9.114;2023-08-06T05:56:33;0.80;;;0.80;;
11651;SDS011;5882;48.818;9.114;2023-08-06T05:59:17;0.80;;;0.80;;
11651;SDS011;5882;48.818;9.114;2023-08-06T06:02:03;0.80;;;0.80;;
11651;SDS011;5882;48.818;9.114;2023-08-06T06:04:49;1.00;;;0.90;;
11651;SDS011;5882;48.818;9.114;2023-08-06T06:07:35;0.70;;;0.70;;
11651;SDS011;5882;48.818;9.114;2023-08-06T06:10:19;0.75;;;0.75;;
11651;SDS011;5882;48.818;9.114;2023-08-06T06:13:04;0.73;;;0.73;;
11651;SDS011;5882;48.818;9.114;2023-08-06T06:15:49;0.60;;;0.60;;
11651;SDS011;5882;48.818;9.114;2023-08-06T06:18:35;0.93;;;0.90;;
11651;SDS011;5882;48.818;9.114;2023-08-06T06:21:21;0.80;;;0.77;;
11651;SDS011;5882;48.818;9.114;2023-08-06T06:24:06;0.70;;;0.70;;
11651;SDS011;5882;48.818;9.114;2023-08-06T06:26:51;0.68;;;0.68;;
11651;SDS011;5882;48.818;9.114;2023-08-06T06:29:36;0.70;;;0.70;;
11651;SDS011;5882;48.818;9.114;2023-08-06T06:32:22;0.60;;;0.60;;
11651;SDS011;5882;48.818;9.114;2023-08-06T06:35:07;0.88;;;0.88;;
11651;SDS011;5882;48.818;9.114;2023-08-06T06:37:54;0.70;;;0.70;;
11651;SDS011;5882;48.818;9.114;2023-08-06T06:40:39;0.70;;;0.70;;
11651;SDS011;5882;48.818;9.114;2023-08-06T06:43:24;0.70;;;0.70;;
11651;SDS011;5882;48.818;9.114;2023-08-06T06:46:09;0.80;;;0.80;;
11651;SDS011;5882;48.818;9.114;2023-08-06T06:48:54;0.60;;;0.60;;
11651;SDS011;5882;48.818;9.114;2023-08-06T06:51:39;0.63;;;0.63;;
11651;SDS011;5882;48.818;9.114;2023-08-06T06:54:26;1.00;;;1.00;;
11651;SDS011;5882;48.818;9.114;2023-08-06T06:57:12;1.10;;;1.10;;
11651;SDS011;5882;48.818;9.114;2023-08-06T06:59:57;0.75;;;0.60;;
11651;SDS011;5882;48.818;9.114;2023-08-06T07:02:43;0.88;;;0.70;;
11651;SDS011;5882;48.818;9.114;2023-08-06T07:05:29;0.60;;;0.60;;
11651;SDS011;5882;48.818;9.114;2023-08-06T07:08:14;0.70;;;0.70;;
11651;SDS011;5882;48.818;9.114;2023-08-06T07:11:01;0.60;;;0.60;;
11651;SDS011;5882;48.818;9.114;2023-08-06T07:13:47;0.70;;;0.70;;
11651;SDS011;5882;48.818;9.114;2023-08-06T07:16:31;0.60;;;0.60;;
11651;SDS011;5882;48.818;9.114;2023-08-06T07:19:17;0.60;;;0.60;;
11651;SDS011;5882;48.818;9.114;2023-08-06T07:22:03;0.70;;;0.70;;
11651;SDS011;5882;48.818;9.114;2023-08-06T07:24:48;1.77;;;0.60;;
11651;SDS011;5882;48.818;9.114;2023-08-06T07:27:38;0.60;;;0.60;;
11651;SDS011;5882;48.818;9.114;2023-08-06T07:30:23;0.60;;;0.60;;
11651;SDS011;5882;48.818;9.114;2023-08-06T07:33:08;0.60;;;0.60;;
11651;SDS011;5882;48.818;9.114;2023-08-06T07:35:53;0.60;;;0.60;;
11651;SDS011;5882;48.818;9.114;2023-08-06T07:38:38;0.65;;;0.65;;
11651;SDS011;5882;48.818;9.114;2023-08-06T07:41:23;0.65;;;0.65;;
11651;SDS011;5882;48.818;9.114;2023-08-06T07:44:10;0.70;;;0.70;;
11651;SDS011;5882;48.818;9.114;2023-08-06T07:46:55;0.60;;;0.60;;
11651;SDS011;5882;48.818;9.114;2023-08-06T07:49:41;0.60;;;0.60;;
11651;SDS011;5882;48.818;9.114;2023-08-06T07:52:26;0.68;;;0.68;;
11651;SDS011;5882;48.818;9.114;2023-08-06T07:55:11;0.60;;;0.60;;
11651;SDS011;5882;48.818;9.114;2023-08-06T07:57:57;0.60;;;0.60;;
11651;SDS011;5882;48.818;9.114;2023-08-06T08:00:43;0.60;;;0.60;;
11651;SDS011;5882;48.818;9.114;2023-08-06T08:03:29;0.50;;;0.50;;
11651;SDS011;5882;48.818;9.114;2023-08-06T08:06:14;0.60;;;0.60;;
11651;SDS011;5882;48.818;9.114;2023-08-06T08:08:59;0.60;;;0.60;;
11651;SDS011;5882;48.818;9.114;2023-08-06T08:11:45;0.60;;;0.60;;
11651;SDS011;5882;48.818;9.114;2023-08-06T08:14:31;0.52;;;0.52;;
11651;SDS011;5882;48.818;9.114;2023-08-06T08:17:20;0.60;;;0.60;;
11651;SDS011;5882;48.818;9.114;2023-08-06T08:20:05;0.60;;;0.60;;
11651;SDS011;5882;48.818;9.114;2023-08-06T08:22:51;0.60;;;0.60;;
11651;SDS011;5882;48.818;9.114;2023-08-06T08:25:37;0.60;;;0.60;;
11651;SDS011;5882;48.818;9.114;2023-08-06T08:28:36;0.70;;;0.70;;
11651;SDS011;5882;48.818;9.114;2023-08-06T08:31:22;0.57;;;0.57;;
11651;SDS011;5882;48.818;9.114;2023-08-06T08:34:14;0.50;;;0.50;;
11651;SDS011;5882;48.818;9.114;2023-08-06T08:36:59;0.60;;;0.60;;
11651;SDS011;5882;48.818;9.114;2023-08-06T08:39:46;0.60;;;0.60;;
11651;SDS011;5882;48.818;9.114;2023-08-06T08:42:32;0.50;;;0.50;;
11651;SDS011;5882;48.818;9.114;2023-08-06T08:45:17;0.60;;;0.60;;
11651;SDS011;5882;48.818;9.114;2023-08-06T08:48:05;0.60;;;0.60;;
11651;SDS011;5882;48.818;9.114;2023-08-06T08:50:52;0.60;;;0.60;;
11651;SDS011;5882;48.818;9.114;2023-08-06T08:53:38;0.60;;;0.60;;
11651;SDS011;5882;48.818;9.114;2023-08-06T08:56:27;0.60;;;0.60;;
11651;SDS011;5882;48.818;9.114;2023-08-06T08:59:12;0.50;;;0.50;;
11651;SDS011;5882;48.818;9.114;2023-08-06T09:01:58;0.60;;;0.60;;
11651;SDS011;5882;48.818;9.114;2023-08-06T09:04:47;0.50;;;0.50;;
11651;SDS011;5882;48.818;9.114;2023-08-06T09:07:36;0.60;;;0.60;;
11651;SDS011;5882;48.818;9.114;2023-08-06T09:10:23;0.60;;;0.60;;
11651;SDS011;5882;48.818;9.114;2023-08-06T09:13:11;0.60;;;0.60;;
11651;SDS011;5882;48.818;9.114;2023-08-06T09:15:57;0.60;;;0.60;;
11651;SDS011;5882;48.818;9.114;2023-08-06T09:18:45;0.70;;;0.70;;
11651;SDS011;5882;48.818;9.114;2023-08-06T09:21:36;0.60;;;0.60;;
11651;SDS011;5882;48.818;9.114;2023-08-06T09:24:23;0.50;;;0.50;;
11651;SDS011;5882;48.818;9.114;2023-08-06T09:27:10;0.50;;;0.50;;
11651;SDS011;5882;48.818;9.114;2023-08-06T09:29:56;0.50;;;0.50;;
11651;SDS011;5882;48.818;9.114;2023-08-06T09:32:44;0.60;;;0.60;;
11651;SDS011;5882;48.818;9.114;2023-08-06T09:35:31;0.60;;;0.60;;
11651;SDS011;5882;48.818;9.114;2023-08-06T09:38:17;0.60;;;0.60;;
11651;SDS011;5882;48.818;9.114;2023-08-06T09:41:03;0.60;;;0.60;;
11651;SDS011;5882;48.818;9.114;2023-08-06T09:43:48;0.50;;;0.50;;
11651;SDS011;5882;48.818;9.114;2023-08-06T09:46:34;0.50;;;0.50;;
11651;SDS011;5882;48.818;9.114;2023-08-06T09:49:25;0.60;;;0.60;;
11651;SDS011;5882;48.818;9.114;2023-08-06T09:52:11;0.50;;;0.50;;
11651;SDS011;5882;48.818;9.114;2023-08-06T09:54:56;0.57;;;0.57;;
11651;SDS011;5882;48.818;9.114;2023-08-06T09:57:44;0.60;;;0.60;;
11651;SDS011;5882;48.818;9.114;2023-08-06T10:00:32;0.60;;;0.60;;
11651;SDS011;5882;48.818;9.114;2023-08-06T10:03:18;0.60;;;0.60;;
11651;SDS011;5882;48.818;9.114;2023-08-06T10:06:03;0.52;;;0.52;;
11651;SDS011;5882;48.818;9.114;2023-08-06T10:08:50;0.60;;;0.60;;
11651;SDS011;5882;48.818;9.114;2023-08-06T10:11:36;0.60;;;0.60;;
11651;SDS011;5882;48.818;9.114;2023-08-06T10:14:23;0.60;;;0.60;;
11651;SDS011;5882;48.818;9.114;2023-08-06T10:17:09;0.50;;;0.50;;
11651;SDS011;5882;48.818;9.114;2023-08-06T10:19:54;0.50;;;0.50;;
11651;SDS011;5882;48.818;9.114;2023-08-06T10:22:42;0.50;;;0.50;;
11651;SDS011;5882;48.818;9.114;2023-08-06T10:25:30;0.50;;;0.50;;
11651;SDS011;5882;48.818;9.114;2023-08-06T10:28:15;0.60;;;0.60;;
11651;SDS011;5882;48.818;9.114;2023-08-06T10:31:03;0.60;;;0.60;;
11651;SDS011;5882;48.818;9.114;2023-08-06T10:33:49;0.60;;;0.60;;
11651;SDS011;5882;48.818;9.114;2023-08-06T10:36:36;0.60;;;0.60;;
11651;SDS011;5882;48.818;9.114;2023-08-06T10:39:22;0.60;;;0.60;;
11651;SDS011;5882;48.818;9.114;2023-08-06T10:42:12;0.60;;;0.60;;
11651;SDS011;5882;48.818;9.114;2023-08-06T10:45:16;0.60;;;0.60;;
11651;SDS011;5882;48.818;9.114;2023-08-06T10:48:04;0.60;;;0.60;;
11651;SDS011;5882;48.818;9.114;2023-08-06T10:50:49;0.60;;;0.60;;
11651;SDS011;5882;48.818;9.114;2023-08-06T10:53:35;0.70;;;0.70;;
11651;SDS011;5882;48.818;9.114;2023-08-06T10:56:21;0.60;;;0.60;;
11651;SDS011;5882;48.818;9.114;2023-08-06T10:59:07;0.70;;;0.70;;
11651;SDS011;5882;48.818;9.114;2023-08-06T11:01:54;0.60;;;0.60;;
11651;SDS011;5882;48.818;9.114;2023-08-06T11:04:42;0.60;;;0.60;;
11651;SDS011;5882;48.818;9.114;2023-08-06T11:07:29;0.60;;;0.60;;
11651;SDS011;5882;48.818;9.114;2023-08-06T11:10:15;0.60;;;0.60;;
11651;SDS011;5882;48.818;9.114;2023-08-06T11:13:00;0.65;;;0.65;;
11651;SDS011;5882;48.818;9.114;2023-08-06T11:15:45;0.65;;;0.65;;
11651;SDS011;5882;48.818;9.114;2023-08-06T11:18:31;0.75;;;0.75;;
11651;SDS011;5882;48.818;9.114;2023-08-06T11:21:20;0.75;;;0.75;;
11651;SDS011;5882;48.818;9.114;2023-08-06T11:24:05;0.70;;;0.70;;
11651;SDS011;5882;48.818;9.114;2023-08-06T11:26:50;1.38;;;0.88;;
11651;SDS011;5882;48.818;9.114;2023-08-06T11:29:36;0.70;;;0.70;;
11651;SDS011;5882;48.818;9.114;2023-08-06T11:32:25;0.77;;;0.77;;
11651;SDS011;5882;48.818;9.114;2023-08-06T11:35:11;0.77;;;0.77;;
11651;SDS011;5882;48.818;9.114;2023-08-06T11:37:57;0.80;;;0.80;;
11651;SDS011;5882;48.818;9.114;2023-08-06T11:40:43;1.00;;;1.00;;
11651;SDS011;5882;48.818;9.114;2023-08-06T11:43:29;0.80;;;0.80;;
11651;SDS011;5882;48.818;9.114;2023-08-06T11:46:15;0.93;;;0.90;;
11651;SDS011;5882;48.818;9.114;2023-08-06T11:49:00;1.13;;;1.05;;
11651;SDS011;5882;48.818;9.114;2023-08-06T11:51:47;0.90;;;0.90;;
11651;SDS011;5882;48.818;9.114;2023-08-06T11:54:34;0.80;;;0.80;;
11651;SDS011;5882;48.818;9.114;2023-08-06T11:57:20;1.00;;;1.00;;
11651;SDS011;5882;48.818;9.114;2023-08-06T12:00:06;0.90;;;0.90;;
11651;SDS011;5882;48.818;9.114;2023-08-06T12:02:51;0.90;;;0.90;;
11651;SDS011;5882;48.818;9.114;2023-08-06T12:05:38;0.98;;;0.98;;
11651;SDS011;5882;48.818;9.114;2023-08-06T12:08:26;0.73;;;0.73;;
11651;SDS011;5882;48.818;9.114;2023-08-06T12:11:13;1.00;;;1.00;;
11651;SDS011;5882;48.818;9.114;2023-08-06T12:13:58;1.42;;;1.00;;
11651;SDS011;5882;48.818;9.114;2023-08-06T12:16:44;1.00;;;0.95;;
11651;SDS011;5882;48.818;9.114;2023-08-06T12:19:30;1.13;;;1.02;;
11651;SDS011;5882;48.818;9.114;2023-08-06T12:22:15;1.63;;;1.10;;
11651;SDS011;5882;48.818;9.114;2023-08-06T12:25:01;1.00;;;0.95;;
11651;SDS011;5882;48.818;9.114;2023-08-06T12:27:48;1.20;;;1.10;;
11651;SDS011;5882;48.818;9.114;2023-08-06T12:30:33;1.20;;;1.10;;
11651;SDS011;5882;48.818;9.114;2023-08-06T12:33:18;1.85;;;1.00;;
11651;SDS011;5882;48.818;9.114;2023-08-06T12:36:03;1.02;;;1.02;;
11651;SDS011;5882;48.818;9.114;2023-08-06T12:38:49;1.25;;;1.15;;
11651;SDS011;5882;48.818;9.114;2023-08-06T12:41:35;0.95;;;0.95;;
11651;SDS011;5882;48.818;9.114;2023-08-06T12:44:22;0.90;;;0.90;;
11651;SDS011;5882;48.818;9.114;2023-08-06T12:47:08;0.82;;;0.82;;
11651;SDS011;5882;48.818;9.114;2023-08-06T12:49:54;0.80;;;0.80;;
11651;SDS011;5882;48.818;9.114;2023-08-06T12:52:40;0.80;;;0.80;;
11651;SDS011;5882;48.818;9.114;2023-08-06T12:55:25;0.90;;;0.90;;
11651;SDS011;5882;48.818;9.114;2023-08-06T12:58:13;0.80;;;0.80;;
11651;SDS011;5882;48.818;9.114;2023-08-06T13:01:03;0.80;;;0.80;;
11651;SDS011;5882;48.818;9.114;2023-08-06T13:03:53;0.80;;;0.80;;
11651;SDS011;5882;48.818;9.114;2023-08-06T13:06:44;0.80;;;0.80;;
11651;SDS011;5882;48.818;9.114;2023-08-06T13:09:30;0.85;;;0.85;;
11651;SDS011;5882;48.818;9.114;2023-08-06T13:12:21;0.85;;;0.85;;
11651;SDS011;5882;48.818;9.114;2023-08-06T13:15:09;0.85;;;0.85;;
11651;SDS011;5882;48.818;9.114;2023-08-06T13:17:56;0.82;;;0.82;;
11651;SDS011;5882;48.818;9.114;2023-08-06T13:20:42;0.80;;;0.80;;
11651;SDS011;5882;48.818;9.114;2023-08-06T13:23:27;1.00;;;1.00;;
11651;SDS011;5882;48.818;9.114;2023-08-06T13:26:12;0.80;;;0.80;;
11651;SDS011;5882;48.818;9.114;2023-08-06T13:28:57;0.80;;;0.80;;
11651;SDS011;5882;48.818;9.114;2023-08-06T13:31:43;0.88;;;0.88;;
11651;SDS011;5882;48.818;9.114;2023-08-06T13:34:30;0.70;;;0.70;;
11651;SDS011;5882;48.818;9.114;2023-08-06T13:37:18;0.63;;;0.63;;
11651;SDS011;5882;48.818;9.114;2023-08-06T13:40:04;0.70;;;0.70;;
11651;SDS011;5882;48.818;9.114;2023-08-06T13:42:50;0.70;;;0.70;;
11651;SDS011;5882;48.818;9.114;2023-08-06T13:45:35;0.75;;;0.70;;
11651;SDS011;5882;48.818;9.114;2023-08-06T13:48:22;0.70;;;0.70;;
11651;SDS011;5882;48.818;9.114;2023-08-06T13:51:09;0.90;;;0.90;;
11651;SDS011;5882;48.818;9.114;2023-08-06T13:53:54;0.70;;;0.70;;
11651;SDS011;5882;48.818;9.114;2023-08-06T13:56:41;0.70;;;0.70;;
11651;SDS011;5882;48.818;9.114;2023-08-06T13:59:26;0.85;;;0.85;;
11651;SDS011;5882;48.818;9.114;2023-08-06T14:02:11;0.80;;;0.80;;
11651;SDS011;5882;48.818;9.114;2023-08-06T14:04:56;0.75;;;0.75;;
11651;SDS011;5882;48.818;9.114;2023-08-06T14:07:43;0.80;;;0.80;;
11651;SDS011;5882;48.818;9.114;2023-08-06T14:10:29;0.95;;;0.95;;
11651;SDS011;5882;48.818;9.114;2023-08-06T14:13:15;0.80;;;0.80;;
11651;SDS011;5882;48.818;9.114;2023-08-06T14:16:00;0.90;;;0.90;;
11651;SDS011;5882;48.818;9.114;2023-08-06T14:18:46;0.80;;;0.80;;
11651;SDS011;5882;48.818;9.114;2023-08-06T14:21:33;0.80;;;0.80;;
11651;SDS011;5882;48.818;9.114;2023-08-06T14:24:20;1.02;;;0.80;;
11651;SDS011;5882;48.818;9.114;2023-08-06T14:27:06;0.90;;;0.90;;
11651;SDS011;5882;48.818;9.114;2023-08-06T14:29:51;0.90;;;0.90;;
11651;SDS011;5882;48.818;9.114;2023-08-06T14:32:35;0.75;;;0.75;;
11651;SDS011;5882;48.818;9.114;2023-08-06T14:35:21;0.80;;;0.80;;
11651;SDS011;5882;48.818;9.114;2023-08-06T14:38:06;0.80;;;0.80;;
11651;SDS011;5882;48.818;9.114;2023-08-06T14:40:55;0.75;;;0.75;;
11651;SDS011;5882;48.818;9.114;2023-08-06T14:43:42;0.90;;;0.90;;
11651;SDS011;5882;48.818;9.114;2023-08-06T14:46:28;0.70;;;0.70;;
11651;SDS011;5882;48.818;9.114;2023-08-06T14:49:12;0.80;;;0.80;;
11651;SDS011;5882;48.818;9.114;2023-08-06T14:51:57;0.88;;;0.88;;
11651;SDS011;5882;48.818;9.114;2023-08-06T14:54:45;0.70;;;0.70;;
11651;SDS011;5882;48.818;9.114;2023-08-06T14:57:32;0.90;;;0.82;;
11651;SDS011;5882;48.818;9.114;2023-08-06T15:00:18;1.08;;;0.95;;
11651;SDS011;5882;48.818;9.114;2023-08-06T15:03:04;0.75;;;0.75;;
11651;SDS011;5882;48.818;9.114;2023-08-06T15:05:49;0.70;;;0.70;;
11651;SDS011;5882;48.818;9.114;2023-08-06T15:08:34;0.70;;;0.70;;
11651;SDS011;5882;48.818;9.114;2023-08-06T15:11:20;1.40;;;1.35;;
11651;SDS011;5882;48.818;9.114;2023-08-06T15:14:07;1.00;;;0.90;;
11651;SDS011;5882;48.818;9.114;2023-08-06T15:16:52;0.75;;;0.75;;
11651;SDS011;5882;48.818;9.114;2023-08-06T15:19:40;0.80;;;0.80;;
11651;SDS011;5882;48.818;9.114;2023-08-06T15:22:25;0.90;;;0.90;;
11651;SDS011;5882;48.818;9.114;2023-08-06T15:25:10;4.68;;;1.40;;
11651;SDS011;5882;48.818;9.114;2023-08-06T15:27:58;0.80;;;0.80;;
11651;SDS011;5882;48.818;9.114;2023-08-06T15:30:48;0.80;;;0.80;;
11651;SDS011;5882;48.818;9.114;2023-08-06T15:33:39;0.70;;;0.70;;
11651;SDS011;5882;48.818;9.114;2023-08-06T15:36:24;0.75;;;0.75;;
11651;SDS011;5882;48.818;9.114;2023-08-06T15:39:12;1.63;;;0.88;;
11651;SDS011;5882;48.818;9.114;2023-08-06T15:41:58;1.02;;;0.90;;
11651;SDS011;5882;48.818;9.114;2023-08-06T15:44:43;0.70;;;0.70;;
11651;SDS011;5882;48.818;9.114;2023-08-06T15:47:32;0.70;;;0.70;;
11651;SDS011;5882;48.818;9.114;2023-08-06T15:50:22;0.80;;;0.80;;
11651;SDS011;5882;48.818;9.114;2023-08-06T15:53:08;0.60;;;0.60;;
11651;SDS011;5882;48.818;9.114;2023-08-06T15:56:01;0.80;;;0.80;;
11651;SDS011;5882;48.818;9.114;2023-08-06T15:58:46;0.70;;;0.70;;
11651;SDS011;5882;48.818;9.114;2023-08-06T16:01:32;0.70;;;0.70;;
11651;SDS011;5882;48.818;9.114;2023-08-06T16:04:20;0.90;;;0.90;;
11651;SDS011;5882;48.818;9.114;2023-08-06T16:07:05;0.85;;;0.85;;
11651;SDS011;5882;48.818;9.114;2023-08-06T16:09:50;0.85;;;0.85;;
11651;SDS011;5882;48.818;9.114;2023-08-06T16:12:38;0.73;;;0.73;;
11651;SDS011;5882;48.818;9.114;2023-08-06T16:15:23;1.20;;;0.90;;
11651;SDS011;5882;48.818;9.114;2023-08-06T16:18:08;0.70;;;0.70;;
11651;SDS011;5882;48.818;9.114;2023-08-06T16:20:57;0.80;;;0.80;;
11651;SDS011;5882;48.818;9.114;2023-08-06T16:23:42;0.93;;;0.93;;
11651;SDS011;5882;48.818;9.114;2023-08-06T16:26:27;0.70;;;0.70;;
11651;SDS011;5882;48.818;9.114;2023-08-06T16:29:14;0.70;;;0.70;;
11651;SDS011;5882;48.818;9.114;2023-08-06T16:32:02;0.80;;;0.80;;
11651;SDS011;5882;48.818;9.114;2023-08-06T16:34:48;0.70;;;0.70;;
11651;SDS011;5882;48.818;9.114;2023-08-06T16:37:35;0.90;;;0.90;;
11651;SDS011;5882;48.818;9.114;2023-08-06T16:40:20;0.80;;;0.80;;
11651;SDS011;5882;48.818;9.114;2023-08-06T16:43:06;0.80;;;0.80;;
11651;SDS011;5882;48.818;9.114;2023-08-06T16:45:52;0.77;;;0.77;;
11651;SDS011;5882;48.818;9.114;2023-08-06T16:48:38;0.80;;;0.80;;
11651;SDS011;5882;48.818;9.114;2023-08-06T16:51:23;0.80;;;0.80;;
11651;SDS011;5882;48.818;9.114;2023-08-06T16:54:11;0.80;;;0.80;;
11651;SDS011;5882;48.818;9.114;2023-08-06T16:56:57;0.80;;;0.80;;